Austin, Colorado
Current Conditions -  °F | °C
As of 1:35 PM on Monday 26 Jan 2015 (Local Time) from KAJZ Reporting Station
Clear Clear  
Wind Chill: 13°   Ceiling: Unl
Heat Index: 13°   Visibility: 10mi
Dew Point: -4°   Wind: 0mph
Humidity: 32%   Direction: NA
Pressure: 30.33"   Gusts: NA
Location:  38.78°N, 107.95°W
Report Text: KAJZ 262035Z AUTO 00000KT 10SM CLR 13/M04 A3033 RMK AO2 T01251038
Loading
Personal Weather Stations






























Interactive Weather Map New forecast layout! Learn more

10-Day Weather Forecast

Advertisements
Track Severe Weather on mobile